Time;durP1;ratioP1;P1;durP2;ratioP2;P2;SDS_P1;SDS_P2;PMS_P1;PMS_P2;Temp;Humidity;BMP_temperature;BMP_pressure;BME280_temperature;BME280_humidity;BME280_pressure;Samples;Min_cycle;Max_cycle;Signal;HPM_P1;HPM_P2
2023/12/12 00:00:19;;;;;;;5.17;2.80;;;;;;;9.26;100.00;99752.03;5055161;28;20218;-76
2023/12/12 00:02:44;;;;;;;3.73;2.60;;;;;;;9.28;100.00;99760.59;5053799;28;20271;-77
2023/12/12 00:05:10;;;;;;;5.30;2.63;;;;;;;9.28;100.00;99756.28;5057145;28;20237;-76
2023/12/12 00:07:35;;;;;;;4.10;2.30;;;;;;;9.28;100.00;99750.28;5055699;28;20285;-76
2023/12/12 00:10:00;;;;;;;5.03;2.77;;;;;;;9.26;100.00;99755.44;5055173;28;20194;-77
2023/12/12 00:12:25;;;;;;;4.13;2.40;;;;;;;9.24;100.00;99756.34;5054780;28;20731;-75
2023/12/12 00:14:51;;;;;;;4.40;2.67;;;;;;;9.25;100.00;99765.81;5056659;28;20300;-76
2023/12/12 00:17:16;;;;;;;4.30;2.57;;;;;;;9.23;100.00;99763.22;5056846;28;20189;-77
2023/12/12 00:19:45;;;;;;;2.90;2.37;;;;;;;9.25;100.00;99776.13;5057583;28;20204;-76
2023/12/12 00:22:11;;;;;;;3.07;2.47;;;;;;;9.28;100.00;99773.53;5055165;28;20919;-76
2023/12/12 00:24:37;;;;;;;4.03;2.40;;;;;;;9.29;100.00;99770.91;5056486;28;20217;-77
2023/12/12 00:27:02;;;;;;;4.63;2.67;;;;;;;9.31;100.00;99770.88;5055515;28;20190;-76
2023/12/12 00:29:27;;;;;;;3.93;2.73;;;;;;;9.32;100.00;99764.84;5051727;28;20193;-76
2023/12/12 00:31:53;;;;;;;4.07;2.70;;;;;;;9.34;100.00;99770.00;5057788;28;20674;-76
2023/12/12 00:34:18;;;;;;;3.10;2.53;;;;;;;9.34;100.00;99762.25;5060192;28;20216;-75
2023/12/12 00:36:43;;;;;;;5.13;2.33;;;;;;;9.33;100.00;99779.47;5079648;28;20194;-76
2023/12/12 00:39:09;;;;;;;6.00;2.73;;;;;;;9.32;100.00;99775.16;5062207;28;20194;-74
2023/12/12 00:41:34;;;;;;;4.10;2.37;;;;;;;9.30;100.00;99775.19;5058251;28;20623;-76
2023/12/12 00:44:00;;;;;;;5.50;2.47;;;;;;;9.31;100.00;99763.13;5060615;28;20229;-76
2023/12/12 00:46:25;;;;;;;5.73;2.90;;;;;;;9.32;100.00;99767.41;5063206;28;20214;-76
2023/12/12 00:48:51;;;;;;;5.67;2.80;;;;;;;9.34;100.00;99780.34;5060251;28;20200;-77
2023/12/12 00:51:16;;;;;;;2.93;2.53;;;;;;;9.34;100.00;99776.00;5061983;28;20196;-76
2023/12/12 00:53:41;;;;;;;5.40;2.60;;;;;;;9.34;100.00;99777.75;5060234;28;20189;-75
2023/12/12 00:56:07;;;;;;;4.90;2.57;;;;;;;9.34;100.00;99776.00;5063225;28;20278;-76
2023/12/12 00:58:32;;;;;;;4.23;2.20;;;;;;;9.34;100.00;99776.00;5061477;28;20192;-76
2023/12/12 01:00:57;;;;;;;3.83;2.43;;;;;;;9.30;100.00;99770.03;5062747;28;20675;-75
2023/12/12 01:03:23;;;;;;;3.63;2.10;;;;;;;9.28;100.00;99776.09;5053557;28;20691;-75
2023/12/12 01:05:48;;;;;;;4.10;2.27;;;;;;;9.24;100.00;99772.69;5062148;28;20590;-76
2023/12/12 01:08:13;;;;;;;5.00;2.50;;;;;;;9.20;100.00;99765.00;5058527;28;20192;-76
2023/12/12 01:10:39;;;;;;;3.20;1.80;;;;;;;9.17;100.00;99765.88;5059324;28;20280;-76
2023/12/12 01:13:04;;;;;;;2.60;2.00;;;;;;;9.14;100.00;99764.22;5057587;28;20745;-75
2023/12/12 01:15:30;;;;;;;3.63;2.40;;;;;;;9.11;100.00;99766.81;5059561;28;20217;-76
2023/12/12 01:17:55;;;;;;;3.27;1.87;;;;;;;9.09;100.00;99759.94;5060417;28;20200;-76
2023/12/12 01:20:20;;;;;;;4.07;2.13;;;;;;;9.05;100.00;99753.97;5059110;28;20233;-75
2023/12/12 01:22:46;;;;;;;4.03;2.47;;;;;;;9.03;100.00;99749.72;5058020;28;20297;-76
2023/12/12 01:25:11;;;;;;;3.60;1.80;;;;;;;8.99;100.00;99743.72;5059301;28;20237;-75
2023/12/12 01:27:36;;;;;;;5.73;2.37;;;;;;;8.95;100.00;99739.47;5060673;28;20191;-77
2023/12/12 01:30:02;;;;;;;2.43;2.10;;;;;;;8.91;100.00;99740.38;5059696;28;20186;-76
2023/12/12 01:32:27;;;;;;;4.50;2.03;;;;;;;8.90;100.00;99738.66;5059623;28;20217;-75
2023/12/12 01:34:53;;;;;;;2.60;2.00;;;;;;;8.90;100.00;99723.16;5057366;28;20210;-75
2023/12/12 01:37:18;;;;;;;4.80;2.30;;;;;;;8.90;100.00;99734.38;5057468;28;20301;-74
2023/12/12 01:39:43;;;;;;;2.50;2.07;;;;;;;8.92;100.00;99744.66;5060176;28;20182;-76
2023/12/12 01:42:09;;;;;;;3.03;2.13;;;;;;;8.89;100.00;99755.00;5058887;28;20264;-76
2023/12/12 01:44:34;;;;;;;5.17;2.20;;;;;;;8.84;100.00;99742.16;5059998;28;20305;-76
2023/12/12 01:46:59;;;;;;;3.30;2.20;;;;;;;8.78;100.00;99740.50;5054259;28;20228;-76
2023/12/12 01:49:25;;;;;;;3.63;2.37;;;;;;;8.73;100.00;99736.25;5059438;28;20694;-76
2023/12/12 01:51:50;;;;;;;3.47;2.27;;;;;;;8.69;100.00;99732.88;5057437;28;20185;-74
2023/12/12 01:54:17;;;;;;;4.00;2.70;;;;;;;8.62;100.00;99737.19;5057650;28;20229;-74
2023/12/12 01:56:47;;;;;;;4.60;2.30;;;;;;;8.54;100.00;99736.44;5059318;28;20591;-76
2023/12/12 01:59:13;;;;;;;2.83;2.17;;;;;;;8.48;100.00;99736.47;5057628;28;20181;-76
2023/12/12 02:01:38;;;;;;;3.73;2.43;;;;;;;8.42;100.00;99734.78;5058593;28;20930;-74
2023/12/12 02:04:05;;;;;;;3.50;2.40;;;;;;;8.37;100.00;99727.09;5057359;28;20218;-76
2023/12/12 02:06:30;;;;;;;4.80;2.67;;;;;;;8.32;100.00;99725.44;5054770;28;20201;-76
2023/12/12 02:08:57;;;;;;;4.13;2.00;;;;;;;8.27;100.00;99725.47;5059002;28;20235;-75
2023/12/12 02:11:22;;;;;;;3.17;2.20;;;;;;;8.18;100.00;99713.53;5056040;28;20178;-76
2023/12/12 02:13:48;;;;;;;3.77;2.10;;;;;;;8.15;100.00;99707.53;5059620;28;20209;-75
2023/12/12 02:16:13;;;;;;;4.90;2.10;;;;;;;8.14;100.00;99716.13;5059196;28;20239;-75
2023/12/12 02:18:39;;;;;;;4.30;2.20;;;;;;;8.09;100.00;99711.88;5057525;28;21834;-75
2023/12/12 02:21:04;;;;;;;2.83;2.17;;;;;;;8.06;100.00;99711.88;5058639;28;20296;-76
2023/12/12 02:23:31;;;;;;;3.63;2.00;;;;;;;8.08;100.00;99727.38;5057178;28;20227;-76
2023/12/12 02:25:59;;;;;;;2.60;1.80;;;;;;;8.07;100.00;99728.22;5057901;28;20181;-75
2023/12/12 02:28:24;;;;;;;3.57;1.87;;;;;;;8.07;100.00;99723.06;5050730;28;20185;-75
2023/12/12 02:30:50;;;;;;;3.67;2.40;;;;;;;8.08;100.00;99725.63;5059511;28;20197;-76
2023/12/12 02:33:15;;;;;;;3.63;2.50;;;;;;;8.10;100.00;99730.75;5060768;28;20184;-75
2023/12/12 02:35:41;;;;;;;2.80;2.13;;;;;;;8.13;100.00;99729.91;5061639;28;20296;-76
2023/12/12 02:38:09;;;;;;;3.03;2.17;;;;;;;8.14;100.00;99722.13;5059667;28;20269;-75
2023/12/12 02:40:34;;;;;;;3.20;2.40;;;;;;;8.13;100.00;99717.00;5058712;28;20213;-75
2023/12/12 02:43:00;;;;;;;3.77;2.30;;;;;;;8.11;100.00;99723.91;5061101;28;20717;-76
2023/12/12 02:45:25;;;;;;;4.07;3.10;;;;;;;8.08;100.00;99720.47;5058126;28;20248;-76
2023/12/12 02:47:51;;;;;;;2.93;2.27;;;;;;;8.03;100.00;99711.06;5060152;28;20236;-76
2023/12/12 02:50:17;;;;;;;4.80;2.23;;;;;;;7.99;100.00;99709.38;5060729;28;20186;-75
2023/12/12 02:52:42;;;;;;;4.30;2.20;;;;;;;7.99;100.00;99712.81;5058303;28;20207;-76
2023/12/12 02:55:08;;;;;;;3.37;1.97;;;;;;;7.97;100.00;99706.81;5058697;28;20210;-76
2023/12/12 02:57:33;;;;;;;3.87;1.87;;;;;;;8.00;100.00;99699.06;5058287;28;20188;-76
2023/12/12 02:59:58;;;;;;;3.50;2.10;;;;;;;8.01;100.00;99694.75;5059217;28;20984;-76
2023/12/12 03:02:24;;;;;;;2.80;1.90;;;;;;;8.00;100.00;99688.75;5056003;28;20216;-76
2023/12/12 03:04:49;;;;;;;3.43;2.17;;;;;;;7.99;100.00;99693.91;5058120;28;20214;-77
2023/12/12 03:07:14;;;;;;;3.57;2.30;;;;;;;7.97;100.00;99690.50;5055788;28;20287;-76
2023/12/12 03:09:40;;;;;;;3.70;2.40;;;;;;;7.95;100.00;99682.78;5052824;28;20192;-76
2023/12/12 03:12:05;;;;;;;5.20;2.47;;;;;;;7.88;100.00;99678.53;5054089;28;20217;-77
2023/12/12 03:14:31;;;;;;;2.60;1.90;;;;;;;7.85;100.00;99683.72;5054684;28;20224;-76
2023/12/12 03:16:57;;;;;;;3.60;2.10;;;;;;;7.84;100.00;99682.84;5054556;28;20215;-76
2023/12/12 03:19:23;;;;;;;4.50;2.13;;;;;;;7.82;100.00;99679.44;5053802;28;20193;-76
2023/12/12 03:21:49;;;;;;;3.33;2.33;;;;;;;7.80;100.00;99691.47;5056949;28;20656;-76
2023/12/12 03:24:15;;;;;;;3.73;2.13;;;;;;;7.80;100.00;99670.84;5056760;28;20216;-76
2023/12/12 03:26:40;;;;;;;3.83;3.03;;;;;;;7.80;100.00;99667.44;5057491;28;20196;-76
2023/12/12 03:29:05;;;;;;;5.67;3.20;;;;;;;7.78;100.00;99652.84;5057400;28;20223;-76
2023/12/12 03:31:31;;;;;;;4.37;3.00;;;;;;;7.80;100.00;99646.84;5057402;28;20189;-77
2023/12/12 03:33:56;;;;;;;5.00;3.23;;;;;;;7.83;100.00;99641.66;5057255;28;20208;-76
2023/12/12 03:36:21;;;;;;;3.83;3.23;;;;;;;7.87;100.00;99635.59;5055244;28;20571;-76
2023/12/12 03:38:47;;;;;;;4.77;3.50;;;;;;;7.92;100.00;99637.28;5058071;28;20243;-76
2023/12/12 03:41:12;;;;;;;5.30;3.90;;;;;;;7.94;100.00;99632.13;5054762;28;20191;-76
2023/12/12 03:43:38;;;;;;;6.17;4.30;;;;;;;7.90;100.00;99635.56;5056344;28;21253;-74
2023/12/12 03:46:03;;;;;;;7.23;4.33;;;;;;;7.86;100.00;99631.34;5059495;28;20563;-77
2023/12/12 03:48:28;;;;;;;6.30;4.30;;;;;;;7.84;100.00;99633.06;5058218;28;20279;-76
2023/12/12 03:50:54;;;;;;;5.97;4.17;;;;;;;7.82;100.00;99639.94;5058606;28;20190;-76
2023/12/12 03:53:19;;;;;;;6.00;3.80;;;;;;;7.83;100.00;99636.50;5055473;28;20681;-76
2023/12/12 03:55:45;;;;;;;5.83;3.83;;;;;;;7.87;100.00;99633.03;5057317;28;21856;-77
2023/12/12 03:58:10;;;;;;;4.10;3.30;;;;;;;7.90;100.00;99633.00;5057269;28;20193;-76
2023/12/12 04:00:35;;;;;;;5.57;3.53;;;;;;;7.92;100.00;99628.69;5061756;28;20224;-76
2023/12/12 04:03:01;;;;;;;3.87;3.43;;;;;;;7.95;100.00;99623.53;5056492;28;20259;-77
2023/12/12 04:05:26;;;;;;;4.97;3.43;;;;;;;7.97;100.00;99616.63;5059784;28;20201;-76
2023/12/12 04:07:51;;;;;;;4.40;3.20;;;;;;;7.97;100.00;99626.94;5065553;28;20924;-76
2023/12/12 04:10:18;;;;;;;4.83;3.23;;;;;;;7.98;100.00;99617.47;5059739;28;20193;-76
2023/12/12 04:12:43;;;;;;;5.53;3.40;;;;;;;8.00;100.00;99626.91;5060976;28;20283;-76
2023/12/12 04:15:09;;;;;;;3.73;3.17;;;;;;;8.03;100.00;99626.88;5060512;28;20206;-76
2023/12/12 04:17:34;;;;;;;4.77;4.00;;;;;;;8.05;100.00;99622.56;5058649;28;20207;-75
2023/12/12 04:19:59;;;;;;;8.07;5.20;;;;;;;8.06;100.00;99618.28;5060966;28;20296;-76
2023/12/12 04:22:25;;;;;;;8.20;4.83;;;;;;;8.01;100.00;99613.16;5059471;28;20566;-77
2023/12/12 04:24:50;;;;;;;7.60;5.03;;;;;;;7.98;100.00;99622.63;5060968;28;20209;-76
2023/12/12 04:27:15;;;;;;;5.73;4.03;;;;;;;7.97;100.00;99626.94;5057824;28;20296;-75
2023/12/12 04:29:41;;;;;;;5.50;3.87;;;;;;;7.97;100.00;99626.06;5061325;28;20218;-76
2023/12/12 04:32:06;;;;;;;6.50;4.27;;;;;;;7.95;100.00;99620.94;5061017;28;20836;-76
2023/12/12 04:34:32;;;;;;;5.97;4.23;;;;;;;7.98;100.00;99614.91;5061841;28;20299;-76
2023/12/12 04:36:58;;;;;;;4.73;3.40;;;;;;;8.02;100.00;99617.44;5060958;28;20206;-78
2023/12/12 04:39:23;;;;;;;4.33;3.30;;;;;;;8.07;100.00;99623.41;5055948;28;20196;-75
2023/12/12 04:41:48;;;;;;;6.03;3.80;;;;;;;8.14;100.00;99615.63;5059981;28;20674;-76
2023/12/12 04:44:13;;;;;;;3.83;3.43;;;;;;;8.17;100.00;99615.56;5060062;28;20729;-76
2023/12/12 04:46:39;;;;;;;5.67;4.23;;;;;;;8.22;100.00;99621.53;5059392;28;20189;-76
2023/12/12 04:49:04;;;;;;;6.07;4.23;;;;;;;8.27;100.00;99612.06;5058966;28;20202;-77
2023/12/12 04:51:29;;;;;;;4.20;3.43;;;;;;;8.29;100.00;99619.75;5060042;28;20235;-76
2023/12/12 04:53:55;;;;;;;4.40;3.83;;;;;;;8.29;100.00;99618.06;5059626;28;20213;-77
2023/12/12 04:56:20;;;;;;;4.97;3.30;;;;;;;8.30;100.00;99619.75;5060307;28;20192;-76
2023/12/12 04:58:46;;;;;;;5.57;3.63;;;;;;;8.31;100.00;99616.31;5060557;28;20186;-76
2023/12/12 05:01:14;;;;;;;3.80;3.07;;;;;;;8.32;100.00;99619.72;5056949;28;20190;-75
2023/12/12 05:03:39;;;;;;;3.43;2.93;;;;;;;8.32;100.00;99610.25;5057257;28;20271;-76
2023/12/12 05:06:04;;;;;;;3.93;3.00;;;;;;;8.33;100.00;99611.97;5060892;28;20190;-76
2023/12/12 05:08:30;;;;;;;4.67;3.00;;;;;;;8.35;100.00;99599.09;5057479;28;20222;-76
2023/12/12 05:10:55;;;;;;;4.53;3.20;;;;;;;8.34;100.00;99607.69;5054559;28;20186;-76
2023/12/12 05:13:20;;;;;;;3.87;2.67;;;;;;;8.35;100.00;99606.81;5058339;28;20189;-76
2023/12/12 05:15:46;;;;;;;4.63;2.97;;;;;;;8.35;100.00;99611.97;5056888;28;20213;-76
2023/12/12 05:18:11;;;;;;;4.50;3.07;;;;;;;8.32;100.00;99606.84;5057499;28;20672;-75
2023/12/12 05:20:36;;;;;;;3.57;2.87;;;;;;;8.31;100.00;99606.00;5057879;28;20201;-76
2023/12/12 05:23:02;;;;;;;3.90;3.10;;;;;;;8.32;100.00;99597.38;5057150;28;20213;-75
2023/12/12 05:25:27;;;;;;;5.20;3.10;;;;;;;8.35;100.00;99586.19;5056663;28;20250;-77
2023/12/12 05:27:52;;;;;;;4.27;2.80;;;;;;;8.37;100.00;99590.44;5060071;28;20189;-76
2023/12/12 05:30:18;;;;;;;4.03;3.10;;;;;;;8.38;100.00;99574.09;5059891;28;20229;-76
2023/12/12 05:32:43;;;;;;;4.77;2.93;;;;;;;8.40;100.00;99579.22;5061338;28;20182;-76
2023/12/12 05:35:09;;;;;;;4.60;3.00;;;;;;;8.39;100.00;99583.56;5059035;28;20284;-77
2023/12/12 05:37:35;;;;;;;4.27;2.70;;;;;;;8.42;100.00;99584.41;5060156;28;20239;-76
2023/12/12 05:40:00;;;;;;;4.63;2.63;;;;;;;8.44;100.00;99572.34;5057445;28;20194;-75
2023/12/12 05:42:26;;;;;;;5.47;3.00;;;;;;;8.44;100.00;99585.22;5059112;28;21367;-76
2023/12/12 05:44:51;;;;;;;3.37;2.77;;;;;;;8.46;100.00;99593.81;5059983;28;20202;-76
2023/12/12 05:47:17;;;;;;;3.67;2.40;;;;;;;8.47;100.00;99586.03;5058776;28;20190;-75
2023/12/12 05:49:42;;;;;;;5.10;3.30;;;;;;;8.51;100.00;99581.72;5057823;28;20190;-76
2023/12/12 05:52:08;;;;;;;3.10;2.53;;;;;;;8.52;100.00;99576.56;5056551;28;20759;-76
2023/12/12 05:54:33;;;;;;;4.43;2.93;;;;;;;8.54;100.00;99572.25;5056100;28;20219;-76
2023/12/12 05:56:59;;;;;;;4.40;2.97;;;;;;;8.53;100.00;99573.13;5060603;28;20249;-76
2023/12/12 05:59:24;;;;;;;4.27;3.00;;;;;;;8.53;100.00;99577.41;5059202;28;20574;-76
2023/12/12 06:01:50;;;;;;;4.63;2.77;;;;;;;8.54;100.00;99564.50;5058960;28;20231;-74
2023/12/12 06:04:16;;;;;;;6.33;4.00;;;;;;;8.57;100.00;99562.75;5059015;28;20225;-74
2023/12/12 06:06:43;;;;;;;4.80;3.73;;;;;;;8.56;100.00;99561.91;5060820;28;20197;-76
2023/12/12 06:09:09;;;;;;;4.70;3.67;;;;;;;8.59;100.00;99563.59;5059594;28;20186;-76
2023/12/12 06:11:36;;;;;;;5.60;3.60;;;;;;;8.60;100.00;99560.13;5058346;28;20186;-76
2023/12/12 06:14:03;;;;;;;5.47;3.77;;;;;;;8.61;100.00;99565.28;5062243;28;20308;-76
2023/12/12 06:16:29;;;;;;;3.87;2.97;;;;;;;8.60;100.00;99567.88;5055500;28;21138;-75
2023/12/12 06:18:54;;;;;;;5.03;2.80;;;;;;;8.61;100.00;99559.25;5057206;28;20186;-76
2023/12/12 06:21:19;;;;;;;3.43;2.73;;;;;;;8.65;100.00;99543.72;5056845;28;20192;-75
2023/12/12 06:23:44;;;;;;;4.07;3.10;;;;;;;8.67;100.00;99544.56;5058231;28;20210;-76
2023/12/12 06:26:10;;;;;;;4.57;2.80;;;;;;;8.71;100.00;99529.88;5059575;28;20277;-76
2023/12/12 06:28:35;;;;;;;4.37;2.90;;;;;;;8.74;100.00;99523.84;5058907;28;20309;-76
2023/12/12 06:31:01;;;;;;;3.77;2.77;;;;;;;8.73;100.00;99517.81;5056641;28;20815;-76
2023/12/12 06:33:28;;;;;;;3.20;2.77;;;;;;;8.73;100.00;99504.91;5056776;28;20186;-76
2023/12/12 06:35:55;;;;;;;4.47;3.10;;;;;;;8.73;100.00;99504.09;5056620;28;20205;-76
2023/12/12 06:38:20;;;;;;;4.87;3.33;;;;;;;8.72;100.00;99503.22;5056984;28;20190;-76
2023/12/12 06:40:45;;;;;;;4.17;2.80;;;;;;;8.73;100.00;99502.34;5065744;28;20198;-76
2023/12/12 06:43:11;;;;;;;3.90;2.73;;;;;;;8.74;100.00;99505.78;5050025;28;20245;-75
2023/12/12 06:45:37;;;;;;;2.97;2.43;;;;;;;8.75;100.00;99520.41;5055709;28;20209;-76
2023/12/12 06:48:03;;;;;;;3.07;2.37;;;;;;;8.77;100.00;99521.22;5057476;28;20178;-75
2023/12/12 06:50:28;;;;;;;5.10;2.37;;;;;;;8.80;100.00;99513.44;5057624;28;20205;-76
2023/12/12 06:52:54;;;;;;;2.33;2.13;;;;;;;8.82;100.00;99519.44;5056654;28;20180;-77
2023/12/12 06:55:20;;;;;;;3.87;2.40;;;;;;;8.84;100.00;99523.72;5055051;28;20237;-76
2023/12/12 06:57:45;;;;;;;3.73;2.37;;;;;;;8.85;100.00;99530.53;5058191;28;20185;-76
2023/12/12 07:00:11;;;;;;;3.33;2.20;;;;;;;8.88;100.00;99537.41;5055913;28;20269;-76
2023/12/12 07:02:37;;;;;;;3.27;2.30;;;;;;;8.89;100.00;99539.13;5057106;28;20277;-77
2023/12/12 07:05:04;;;;;;;3.07;2.00;;;;;;;8.91;100.00;99549.41;5055519;28;20209;-77
2023/12/12 07:07:30;;;;;;;3.17;2.27;;;;;;;8.91;100.00;99544.25;5054949;28;20662;-77
2023/12/12 07:09:55;;;;;;;3.10;2.80;;;;;;;8.92;100.00;99546.81;5059231;28;20200;-76
2023/12/12 07:12:20;;;;;;;5.43;3.83;;;;;;;8.93;100.00;99545.09;5058816;28;21011;-77
2023/12/12 07:14:45;;;;;;;3.90;3.50;;;;;;;8.94;100.00;99532.16;5058686;28;20210;-76
2023/12/12 07:17:11;;;;;;;4.47;3.60;;;;;;;8.95;100.00;99526.09;5053847;28;20924;-76
2023/12/12 07:19:36;;;;;;;7.30;5.40;;;;;;;8.95;100.00;99513.22;5057651;28;20189;-76
2023/12/12 07:22:02;;;;;;;5.60;4.97;;;;;;;8.94;100.00;99523.56;5057699;28;20190;-76
2023/12/12 07:24:28;;;;;;;6.47;4.80;;;;;;;8.95;100.00;99523.53;5059052;28;20594;-75
2023/12/12 07:26:53;;;;;;;4.70;4.30;;;;;;;8.95;100.00;99520.09;5058420;28;20186;-76
2023/12/12 07:29:19;;;;;;;5.03;4.23;;;;;;;8.96;100.00;99525.25;5056563;28;20296;-76
2023/12/12 07:31:47;;;;;;;5.80;3.83;;;;;;;8.96;100.00;99527.81;5055020;28;20248;-76
2023/12/12 07:34:13;;;;;;;4.40;3.30;;;;;;;8.96;100.00;99527.81;5054912;28;20357;-76
2023/12/12 07:36:39;;;;;;;6.17;3.77;;;;;;;8.90;100.00;99533.09;5056560;28;20852;-76
2023/12/12 07:39:05;;;;;;;5.07;2.97;;;;;;;8.85;100.00;99535.69;5056073;28;20276;-76
2023/12/12 07:41:33;;;;;;;6.50;2.80;;;;;;;8.83;100.00;99539.19;5058358;28;20608;-76
2023/12/12 07:43:59;;;;;;;3.93;2.77;;;;;;;8.84;100.00;99541.78;5056597;28;20217;-75
2023/12/12 07:46:24;;;;;;;4.83;3.13;;;;;;;8.85;100.00;99532.28;5061093;28;20190;-76
2023/12/12 07:48:50;;;;;;;3.77;2.70;;;;;;;8.85;100.00;99520.22;5059293;28;20186;-76
2023/12/12 07:51:15;;;;;;;4.03;3.00;;;;;;;8.89;100.00;99512.44;5056087;28;20277;-74
2023/12/12 07:53:41;;;;;;;5.50;3.37;;;;;;;8.89;100.00;99500.41;5056937;28;20186;-75
2023/12/12 07:56:07;;;;;;;5.80;3.40;;;;;;;8.91;100.00;99502.97;5054959;28;20174;-77
2023/12/12 07:58:32;;;;;;;6.17;3.53;;;;;;;8.93;100.00;99498.63;5059669;28;20183;-76
2023/12/12 08:00:57;;;;;;;7.13;4.40;;;;;;;8.96;100.00;99488.28;5058146;28;20190;-76
2023/12/12 08:03:22;;;;;;;5.73;5.03;;;;;;;9.01;100.00;99491.63;5058769;28;20219;-76
2023/12/12 08:05:49;;;;;;;4.43;3.07;;;;;;;9.03;100.00;99474.38;5056547;28;20279;-75
2023/12/12 08:08:14;;;;;;;4.63;3.30;;;;;;;9.05;100.00;99453.72;5056221;28;21046;-76
2023/12/12 08:10:40;;;;;;;6.07;4.20;;;;;;;9.07;100.00;99446.81;5059676;28;20238;-76
2023/12/12 08:13:06;;;;;;;11.27;5.17;;;;;;;9.07;100.00;99450.22;5057848;28;21324;-76
2023/12/12 08:15:31;;;;;;;6.33;3.60;;;;;;;9.08;100.00;99448.50;5059345;28;20212;-76
2023/12/12 08:17:56;;;;;;;4.80;3.10;;;;;;;9.10;100.00;99447.59;5058368;28;20190;-75
2023/12/12 08:20:22;;;;;;;3.97;3.10;;;;;;;9.15;100.00;99440.63;5059279;28;20259;-76
2023/12/12 08:22:47;;;;;;;3.60;2.63;;;;;;;9.22;100.00;99445.69;5052095;28;20218;-76
2023/12/12 08:25:12;;;;;;;4.87;3.00;;;;;;;9.28;100.00;99436.09;5052711;28;20214;-75
2023/12/12 08:27:38;;;;;;;4.63;2.60;;;;;;;9.36;100.00;99432.56;5057967;28;20189;-76
2023/12/12 08:30:05;;;;;;;3.90;2.60;;;;;;;9.43;100.00;99435.00;5058064;28;20784;-76
2023/12/12 08:32:30;;;;;;;3.17;2.30;;;;;;;9.51;100.00;99431.41;5058563;28;20259;-76
2023/12/12 08:34:56;;;;;;;3.00;2.30;;;;;;;9.57;100.00;99433.91;5057742;28;20211;-76
2023/12/12 08:37:21;;;;;;;3.60;2.20;;;;;;;9.60;100.00;99432.09;5055627;28;20194;-76
2023/12/12 08:39:47;;;;;;;3.30;2.00;;;;;;;9.66;100.00;99435.47;5058708;28;20633;-76
2023/12/12 08:42:13;;;;;;;3.40;2.60;;;;;;;9.70;100.00;99456.03;5055831;28;20799;-76
2023/12/12 08:44:41;;;;;;;5.03;3.10;;;;;;;9.66;100.00;99454.38;5056956;28;20215;-75
2023/12/12 08:47:06;;;;;;;6.57;3.43;;;;;;;9.65;100.00;99457.84;5059053;28;20278;-76
2023/12/12 08:49:37;;;;;;;7.63;3.70;;;;;;;9.57;100.00;99462.31;5054835;28;20627;-77
2023/12/12 08:52:04;;;;;;;7.20;3.70;;;;;;;9.50;100.00;99453.81;5062388;28;20215;-76
2023/12/12 08:54:29;;;;;;;5.33;3.03;;;;;;;9.50;100.00;99451.25;5060420;28;20205;-76
2023/12/12 08:56:55;;;;;;;4.00;2.83;;;;;;;9.57;100.00;99446.81;5062777;28;20201;-75
2023/12/12 08:59:24;;;;;;;3.43;2.50;;;;;;;9.63;100.00;99446.69;5060645;28;20189;-76
2023/12/12 09:01:49;;;;;;;3.53;2.33;;;;;;;9.70;100.00;99450.00;5062228;28;20213;-76
2023/12/12 09:04:16;;;;;;;2.87;1.90;;;;;;;9.74;100.00;99441.31;5057339;28;20295;-76
2023/12/12 09:06:44;;;;;;;2.70;2.20;;;;;;;9.78;100.00;99442.97;5062175;28;20217;-76
2023/12/12 09:09:10;;;;;;;6.00;3.17;;;;;;;9.80;100.00;99437.75;5061776;28;20182;-76
2023/12/12 09:11:37;;;;;;;5.53;2.93;;;;;;;9.78;100.00;99440.38;5061677;28;20206;-77
2023/12/12 09:14:02;;;;;;;3.93;2.97;;;;;;;9.78;100.00;99440.38;5060692;28;20213;-74
2023/12/12 09:16:27;;;;;;;2.87;2.37;;;;;;;9.80;100.00;99433.47;5058585;28;20214;-76
2023/12/12 09:18:53;;;;;;;3.20;2.10;;;;;;;9.82;100.00;99439.44;5061947;28;20683;-74
2023/12/12 09:21:18;;;;;;;4.23;2.53;;;;;;;9.85;100.00;99429.03;5061287;28;20666;-75
2023/12/12 09:23:43;;;;;;;3.33;2.23;;;;;;;9.89;100.00;99425.50;5059394;28;20218;-75
2023/12/12 09:26:15;;;;;;;2.27;2.07;;;;;;;9.93;100.00;99413.38;5061214;28;20186;-75
2023/12/12 09:28:42;;;;;;;3.00;2.30;;;;;;;9.97;100.00;99424.53;5059531;28;20231;-75
2023/12/12 09:31:11;;;;;;;3.93;2.33;;;;;;;10.02;100.00;99417.50;5069427;28;20264;-77
2023/12/12 09:33:37;;;;;;;3.30;2.13;;;;;;;10.03;100.00;99416.63;5062742;28;20923;-76
2023/12/12 09:36:03;;;;;;;2.47;2.20;;;;;;;10.04;100.00;99416.59;5061431;28;20213;-76
2023/12/12 09:38:29;;;;;;;5.57;2.70;;;;;;;10.06;100.00;99406.22;5061373;28;20266;-75
2023/12/12 09:40:55;;;;;;;3.70;2.57;;;;;;;10.07;100.00;99403.59;5061878;28;20186;-77
2023/12/12 09:43:26;;;;;;;4.63;2.67;;;;;;;10.11;100.00;99393.19;5059984;28;20215;-75
2023/12/12 09:45:55;;;;;;;3.37;2.83;;;;;;;10.14;100.00;99386.22;5062368;28;20214;-76
2023/12/12 09:48:21;;;;;;;4.13;3.27;;;;;;;10.19;100.00;99380.97;5061309;28;20236;-76
2023/12/12 09:50:54;;;;;;;3.73;3.20;;;;;;;10.22;100.00;99386.03;5059638;28;20196;-76
2023/12/12 09:53:20;;;;;;;4.87;3.53;;;;;;;10.25;100.00;99382.56;5051704;28;20374;-76
2023/12/12 09:55:46;;;;;;;4.00;3.60;;;;;;;10.27;100.00;99384.22;5060151;28;20206;-76
2023/12/12 09:58:11;;;;;;;4.67;3.90;;;;;;;10.28;100.00;99387.66;5069005;28;20189;-77
2023/12/12 10:00:37;;;;;;;4.33;3.73;;;;;;;10.28;100.00;99385.09;5058911;28;20210;-77
2023/12/12 10:03:05;;;;;;;5.27;4.03;;;;;;;10.26;100.00;99379.94;5061958;28;20214;-76
2023/12/12 10:05:33;;;;;;;6.63;4.43;;;;;;;10.25;100.00;99370.47;5055097;28;20218;-76
2023/12/12 10:08:01;;;;;;;5.43;3.80;;;;;;;10.27;100.00;99367.88;5059144;28;20206;-76
2023/12/12 10:10:27;;;;;;;4.60;3.40;;;;;;;10.28;100.00;99354.88;5057415;28;20186;-77
2023/12/12 10:12:52;;;;;;;5.40;4.17;;;;;;;10.28;100.00;99346.28;5059994;28;20194;-76
2023/12/12 10:15:23;;;;;;;9.60;5.20;;;;;;;10.26;100.00;99342.88;5056309;28;20207;-76
2023/12/12 10:17:48;;;;;;;7.93;4.50;;;;;;;10.20;100.00;99328.38;5060694;28;20214;-76
2023/12/12 10:20:25;;;;;;;4.70;3.37;;;;;;;10.13;100.00;99312.16;5056591;28;20722;-75
2023/12/12 10:22:50;;;;;;;4.80;3.13;;;;;;;10.08;100.00;99293.28;5057141;28;20599;-76
2023/12/12 10:25:15;;;;;;;4.80;2.97;;;;;;;10.07;100.00;99287.25;5058437;28;20222;-73
2023/12/12 10:27:44;;;;;;;3.57;2.83;;;;;;;10.05;100.00;99277.84;5056615;28;20187;-75
2023/12/12 10:30:12;;;;;;;2.60;2.37;;;;;;;10.09;100.00;99273.44;5059683;28;20182;-76
2023/12/12 10:32:38;;;;;;;3.27;2.03;;;;;;;10.16;100.00;99260.34;5060077;28;20197;-77
2023/12/12 10:35:04;;;;;;;2.07;1.70;;;;;;;10.26;100.00;99268.75;5058996;28;20596;-76
2023/12/12 10:37:30;;;;;;;2.53;1.30;;;;;;;10.34;100.00;99265.97;5058333;28;20666;-76
2023/12/12 10:39:55;;;;;;;2.50;1.40;;;;;;;10.42;100.00;99261.50;5054175;28;20568;-76
2023/12/12 10:42:23;;;;;;;1.23;0.80;;;;;;;10.49;100.00;99260.44;5059150;28;20186;-76
2023/12/12 10:44:55;;;;;;;1.70;0.97;;;;;;;10.58;100.00;99266.28;5058270;28;20889;-76
2023/12/12 10:47:21;;;;;;;0.77;0.70;;;;;;;10.62;100.00;99266.16;5057147;28;20318;-77
2023/12/12 10:49:48;;;;;;;1.60;0.97;;;;;;;10.71;100.00;99256.44;5057869;28;20723;-76
2023/12/12 10:52:15;;;;;;;0.73;0.53;;;;;;;10.79;100.00;99239.00;5060625;28;20240;-78
2023/12/12 10:54:43;;;;;;;0.50;0.50;;;;;;;10.90;100.00;99231.78;5057286;28;20202;-76
2023/12/12 10:57:10;;;;;;;0.77;0.57;;;;;;;11.04;100.00;99230.56;5055171;28;20206;-77
2023/12/12 10:59:38;;;;;;;1.00;0.80;;;;;;;11.16;100.00;99227.63;5056075;28;20186;-76
2023/12/12 11:02:04;;;;;;;0.70;0.70;;;;;;;11.27;100.00;99219.53;5056214;28;20196;-76
2023/12/12 11:04:30;;;;;;;2.07;0.80;;;;;;;11.34;100.00;99234.03;5058787;28;20840;-76
2023/12/12 11:06:56;;;;;;;0.73;0.73;;;;;;;11.36;100.00;99227.03;5057513;28;20288;-76
2023/12/12 11:09:21;;;;;;;2.03;1.03;;;;;;;11.35;100.00;99219.31;5058754;28;20191;-76
2023/12/12 11:11:49;;;;;;;1.00;0.90;;;;;;;11.31;100.00;99200.44;5058274;28;20226;-76
2023/12/12 11:14:19;;;;;;;1.17;0.93;;;;;;;11.33;100.00;99195.19;5055524;28;20197;-75
2023/12/12 11:16:45;;;;;;;1.37;0.97;;;;;;;11.38;100.00;99194.16;5056504;28;20957;-75
2023/12/12 11:19:17;;;;;;;1.03;0.83;;;;;;;11.44;100.00;99183.63;5056742;28;20184;-75
2023/12/12 11:21:43;;;;;;;1.70;1.10;;;;;;;11.52;100.00;99182.53;5058094;28;20221;-75
2023/12/12 11:24:08;;;;;;;1.13;0.90;;;;;;;11.57;100.00;99173.72;5053199;28;20274;-76